sensor_id;sensor_type;location;lat;lon;timestamp;P1;durP1;ratioP1;P2;durP2;ratioP2
37355;SDS011;48747;50.250;18.848;2023-04-03T00:00:05;14.95;;;7.45;;
37355;SDS011;48747;50.250;18.848;2023-04-03T00:02:09;9.25;;;6.37;;
37355;SDS011;48747;50.250;18.848;2023-04-03T00:04:12;12.63;;;7.33;;
37355;SDS011;48747;50.250;18.848;2023-04-03T00:06:15;10.28;;;6.85;;
37355;SDS011;48747;50.250;18.848;2023-04-03T00:08:19;10.18;;;7.17;;
37355;SDS011;48747;50.250;18.848;2023-04-03T00:10:22;11.70;;;7.53;;
37355;SDS011;48747;50.250;18.848;2023-04-03T00:12:25;11.22;;;6.97;;
37355;SDS011;48747;50.250;18.848;2023-04-03T00:14:28;13.35;;;7.45;;
37355;SDS011;48747;50.250;18.848;2023-04-03T00:16:31;11.80;;;7.55;;
37355;SDS011;48747;50.250;18.848;2023-04-03T00:18:34;13.20;;;8.28;;
37355;SDS011;48747;50.250;18.848;2023-04-03T00:20:37;14.50;;;7.70;;
37355;SDS011;48747;50.250;18.848;2023-04-03T00:22:41;12.70;;;7.62;;
37355;SDS011;48747;50.250;18.848;2023-04-03T00:24:44;11.88;;;7.50;;
37355;SDS011;48747;50.250;18.848;2023-04-03T00:26:47;10.85;;;6.85;;
37355;SDS011;48747;50.250;18.848;2023-04-03T00:28:50;11.18;;;7.30;;
37355;SDS011;48747;50.250;18.848;2023-04-03T00:30:53;12.25;;;6.40;;
37355;SDS011;48747;50.250;18.848;2023-04-03T00:32:56;12.43;;;7.15;;
37355;SDS011;48747;50.250;18.848;2023-04-03T00:35:00;11.63;;;7.08;;
37355;SDS011;48747;50.250;18.848;2023-04-03T00:37:03;15.90;;;8.05;;
37355;SDS011;48747;50.250;18.848;2023-04-03T00:39:06;15.43;;;8.23;;
37355;SDS011;48747;50.250;18.848;2023-04-03T00:41:09;15.18;;;8.18;;
37355;SDS011;48747;50.250;18.848;2023-04-03T00:43:19;18.05;;;8.70;;
37355;SDS011;48747;50.250;18.848;2023-04-03T00:45:32;20.70;;;10.53;;
37355;SDS011;48747;50.250;18.848;2023-04-03T00:47:38;17.37;;;10.13;;
37355;SDS011;48747;50.250;18.848;2023-04-03T00:49:42;18.32;;;10.53;;
37355;SDS011;48747;50.250;18.848;2023-04-03T00:51:46;16.65;;;10.20;;
37355;SDS011;48747;50.250;18.848;2023-04-03T00:53:52;16.75;;;9.90;;
37355;SDS011;48747;50.250;18.848;2023-04-03T00:56:00;14.15;;;9.83;;
37355;SDS011;48747;50.250;18.848;2023-04-03T00:58:03;16.57;;;10.08;;
37355;SDS011;48747;50.250;18.848;2023-04-03T01:00:09;16.50;;;10.88;;
37355;SDS011;48747;50.250;18.848;2023-04-03T01:02:15;18.48;;;10.65;;
37355;SDS011;48747;50.250;18.848;2023-04-03T01:06:37;15.58;;;9.85;;
37355;SDS011;48747;50.250;18.848;2023-04-03T01:08:41;15.72;;;10.32;;
37355;SDS011;48747;50.250;18.848;2023-04-03T01:10:44;14.33;;;9.20;;
37355;SDS011;48747;50.250;18.848;2023-04-03T01:12:48;16.37;;;10.78;;
37355;SDS011;48747;50.250;18.848;2023-04-03T01:14:58;15.03;;;9.85;;
37355;SDS011;48747;50.250;18.848;2023-04-03T01:16:58;18.17;;;11.25;;
37355;SDS011;48747;50.250;18.848;2023-04-03T01:19:01;17.92;;;11.10;;
37355;SDS011;48747;50.250;18.848;2023-04-03T01:21:30;18.00;;;11.55;;
37355;SDS011;48747;50.250;18.848;2023-04-03T01:26:01;15.45;;;10.38;;
37355;SDS011;48747;50.250;18.848;2023-04-03T01:28:06;20.25;;;12.58;;
37355;SDS011;48747;50.250;18.848;2023-04-03T01:30:11;21.62;;;11.73;;
37355;SDS011;48747;50.250;18.848;2023-04-03T01:32:17;15.18;;;10.43;;
37355;SDS011;48747;50.250;18.848;2023-04-03T01:34:20;17.87;;;10.65;;
37355;SDS011;48747;50.250;18.848;2023-04-03T01:36:25;17.42;;;9.73;;
37355;SDS011;48747;50.250;18.848;2023-04-03T01:38:31;17.82;;;10.38;;
37355;SDS011;48747;50.250;18.848;2023-04-03T01:40:34;18.77;;;10.53;;
37355;SDS011;48747;50.250;18.848;2023-04-03T01:42:37;19.27;;;10.90;;
37355;SDS011;48747;50.250;18.848;2023-04-03T01:44:40;17.20;;;10.43;;
37355;SDS011;48747;50.250;18.848;2023-04-03T01:46:44;18.45;;;10.80;;
37355;SDS011;48747;50.250;18.848;2023-04-03T01:48:47;18.15;;;11.33;;
37355;SDS011;48747;50.250;18.848;2023-04-03T01:50:50;17.25;;;9.83;;
37355;SDS011;48747;50.250;18.848;2023-04-03T01:52:53;17.07;;;9.85;;
37355;SDS011;48747;50.250;18.848;2023-04-03T01:54:56;16.75;;;8.85;;
37355;SDS011;48747;50.250;18.848;2023-04-03T01:56:59;14.43;;;8.50;;
37355;SDS011;48747;50.250;18.848;2023-04-03T01:59:02;17.80;;;9.23;;
37355;SDS011;48747;50.250;18.848;2023-04-03T02:01:06;14.85;;;8.83;;
37355;SDS011;48747;50.250;18.848;2023-04-03T02:03:08;16.00;;;8.75;;
37355;SDS011;48747;50.250;18.848;2023-04-03T02:05:12;16.23;;;9.08;;
37355;SDS011;48747;50.250;18.848;2023-04-03T02:07:15;18.23;;;10.53;;
37355;SDS011;48747;50.250;18.848;2023-04-03T02:09:18;16.95;;;10.00;;
37355;SDS011;48747;50.250;18.848;2023-04-03T02:11:21;15.60;;;8.55;;
37355;SDS011;48747;50.250;18.848;2023-04-03T02:13:24;15.03;;;8.05;;
37355;SDS011;48747;50.250;18.848;2023-04-03T02:15:27;17.15;;;8.95;;
37355;SDS011;48747;50.250;18.848;2023-04-03T02:17:30;18.48;;;8.83;;
37355;SDS011;48747;50.250;18.848;2023-04-03T02:19:33;13.78;;;8.08;;
37355;SDS011;48747;50.250;18.848;2023-04-03T02:21:37;15.32;;;7.33;;
37355;SDS011;48747;50.250;18.848;2023-04-03T02:23:40;13.03;;;7.72;;
37355;SDS011;48747;50.250;18.848;2023-04-03T02:25:43;13.13;;;7.50;;
37355;SDS011;48747;50.250;18.848;2023-04-03T02:27:46;12.40;;;7.00;;
37355;SDS011;48747;50.250;18.848;2023-04-03T02:29:49;13.80;;;6.80;;
37355;SDS011;48747;50.250;18.848;2023-04-03T02:31:52;12.85;;;7.03;;
37355;SDS011;48747;50.250;18.848;2023-04-03T02:33:56;12.00;;;6.90;;
37355;SDS011;48747;50.250;18.848;2023-04-03T02:35:59;14.07;;;6.53;;
37355;SDS011;48747;50.250;18.848;2023-04-03T02:38:02;10.40;;;6.60;;
37355;SDS011;48747;50.250;18.848;2023-04-03T02:40:06;13.00;;;6.78;;
37355;SDS011;48747;50.250;18.848;2023-04-03T02:42:10;11.25;;;6.78;;
37355;SDS011;48747;50.250;18.848;2023-04-03T02:44:13;14.40;;;6.97;;
37355;SDS011;48747;50.250;18.848;2023-04-03T02:46:16;12.00;;;6.85;;
37355;SDS011;48747;50.250;18.848;2023-04-03T02:48:19;11.25;;;6.90;;
37355;SDS011;48747;50.250;18.848;2023-04-03T02:50:22;13.35;;;7.90;;
37355;SDS011;48747;50.250;18.848;2023-04-03T02:52:26;16.77;;;7.08;;
37355;SDS011;48747;50.250;18.848;2023-04-03T02:54:29;15.55;;;8.48;;
37355;SDS011;48747;50.250;18.848;2023-04-03T02:56:32;16.10;;;7.92;;
37355;SDS011;48747;50.250;18.848;2023-04-03T02:58:35;12.65;;;7.53;;
37355;SDS011;48747;50.250;18.848;2023-04-03T03:00:38;15.75;;;6.92;;
37355;SDS011;48747;50.250;18.848;2023-04-03T03:02:42;11.50;;;6.70;;
37355;SDS011;48747;50.250;18.848;2023-04-03T03:04:45;12.63;;;7.50;;
37355;SDS011;48747;50.250;18.848;2023-04-03T03:06:48;11.10;;;5.75;;
37355;SDS011;48747;50.250;18.848;2023-04-03T03:08:52;13.10;;;6.78;;
37355;SDS011;48747;50.250;18.848;2023-04-03T03:10:55;10.13;;;6.33;;
37355;SDS011;48747;50.250;18.848;2023-04-03T03:12:58;13.03;;;6.70;;
37355;SDS011;48747;50.250;18.848;2023-04-03T03:15:02;14.70;;;6.60;;
37355;SDS011;48747;50.250;18.848;2023-04-03T03:17:05;12.30;;;7.17;;
37355;SDS011;48747;50.250;18.848;2023-04-03T03:19:08;16.62;;;7.47;;
37355;SDS011;48747;50.250;18.848;2023-04-03T03:21:11;13.62;;;6.95;;
37355;SDS011;48747;50.250;18.848;2023-04-03T03:23:15;13.43;;;7.10;;
37355;SDS011;48747;50.250;18.848;2023-04-03T03:25:18;14.87;;;6.90;;
37355;SDS011;48747;50.250;18.848;2023-04-03T03:27:21;13.88;;;6.78;;
37355;SDS011;48747;50.250;18.848;2023-04-03T03:29:25;11.97;;;5.00;;
37355;SDS011;48747;50.250;18.848;2023-04-03T03:31:28;8.93;;;5.55;;
37355;SDS011;48747;50.250;18.848;2023-04-03T03:33:31;14.73;;;7.40;;
37355;SDS011;48747;50.250;18.848;2023-04-03T03:35:34;11.00;;;6.37;;
37355;SDS011;48747;50.250;18.848;2023-04-03T03:37:37;11.93;;;5.87;;
37355;SDS011;48747;50.250;18.848;2023-04-03T03:39:40;10.45;;;5.62;;
37355;SDS011;48747;50.250;18.848;2023-04-03T03:41:43;12.37;;;5.67;;
37355;SDS011;48747;50.250;18.848;2023-04-03T03:43:47;12.15;;;6.12;;
37355;SDS011;48747;50.250;18.848;2023-04-03T03:45:55;13.15;;;6.65;;
37355;SDS011;48747;50.250;18.848;2023-04-03T03:47:54;16.20;;;6.45;;
37355;SDS011;48747;50.250;18.848;2023-04-03T03:49:58;11.12;;;5.67;;
37355;SDS011;48747;50.250;18.848;2023-04-03T03:52:01;14.78;;;7.22;;
37355;SDS011;48747;50.250;18.848;2023-04-03T03:54:04;16.57;;;6.90;;
37355;SDS011;48747;50.250;18.848;2023-04-03T03:56:07;13.80;;;6.53;;
37355;SDS011;48747;50.250;18.848;2023-04-03T03:58:11;12.82;;;5.87;;
37355;SDS011;48747;50.250;18.848;2023-04-03T04:00:14;13.00;;;5.95;;
37355;SDS011;48747;50.250;18.848;2023-04-03T04:02:18;13.05;;;6.17;;
37355;SDS011;48747;50.250;18.848;2023-04-03T04:04:21;11.00;;;5.45;;
37355;SDS011;48747;50.250;18.848;2023-04-03T04:06:24;11.80;;;5.72;;
37355;SDS011;48747;50.250;18.848;2023-04-03T04:08:27;12.82;;;5.42;;
37355;SDS011;48747;50.250;18.848;2023-04-03T04:10:31;11.63;;;5.95;;
37355;SDS011;48747;50.250;18.848;2023-04-03T04:12:34;11.65;;;5.28;;
37355;SDS011;48747;50.250;18.848;2023-04-03T04:14:37;10.05;;;4.97;;
37355;SDS011;48747;50.250;18.848;2023-04-03T04:16:40;9.20;;;4.50;;
37355;SDS011;48747;50.250;18.848;2023-04-03T04:18:43;11.03;;;4.90;;
37355;SDS011;48747;50.250;18.848;2023-04-03T04:20:46;9.50;;;4.70;;
37355;SDS011;48747;50.250;18.848;2023-04-03T04:22:49;8.25;;;4.83;;
37355;SDS011;48747;50.250;18.848;2023-04-03T04:24:52;9.40;;;4.65;;
37355;SDS011;48747;50.250;18.848;2023-04-03T04:26:55;12.05;;;4.95;;
37355;SDS011;48747;50.250;18.848;2023-04-03T04:28:58;12.58;;;5.50;;
37355;SDS011;48747;50.250;18.848;2023-04-03T04:31:02;10.00;;;4.87;;
37355;SDS011;48747;50.250;18.848;2023-04-03T04:33:05;12.07;;;5.53;;
37355;SDS011;48747;50.250;18.848;2023-04-03T04:35:08;9.60;;;4.67;;
37355;SDS011;48747;50.250;18.848;2023-04-03T04:37:11;14.05;;;5.87;;
37355;SDS011;48747;50.250;18.848;2023-04-03T04:39:14;10.03;;;4.40;;
37355;SDS011;48747;50.250;18.848;2023-04-03T04:41:17;10.15;;;4.58;;
37355;SDS011;48747;50.250;18.848;2023-04-03T04:43:23;14.33;;;4.75;;
37355;SDS011;48747;50.250;18.848;2023-04-03T04:45:26;8.43;;;4.10;;
37355;SDS011;48747;50.250;18.848;2023-04-03T04:47:29;10.48;;;4.45;;
37355;SDS011;48747;50.250;18.848;2023-04-03T04:49:32;9.03;;;4.50;;
37355;SDS011;48747;50.250;18.848;2023-04-03T04:51:35;9.68;;;4.67;;
37355;SDS011;48747;50.250;18.848;2023-04-03T04:53:38;9.35;;;3.87;;
37355;SDS011;48747;50.250;18.848;2023-04-03T04:55:42;9.80;;;4.17;;
37355;SDS011;48747;50.250;18.848;2023-04-03T04:57:45;11.68;;;5.12;;
37355;SDS011;48747;50.250;18.848;2023-04-03T04:59:48;9.88;;;4.00;;
37355;SDS011;48747;50.250;18.848;2023-04-03T05:01:51;11.40;;;3.92;;
37355;SDS011;48747;50.250;18.848;2023-04-03T05:03:54;12.53;;;4.20;;
37355;SDS011;48747;50.250;18.848;2023-04-03T05:05:57;9.20;;;4.28;;
37355;SDS011;48747;50.250;18.848;2023-04-03T05:08:01;8.25;;;4.30;;
37355;SDS011;48747;50.250;18.848;2023-04-03T05:10:04;7.80;;;4.20;;
37355;SDS011;48747;50.250;18.848;2023-04-03T05:12:08;8.58;;;4.40;;
37355;SDS011;48747;50.250;18.848;2023-04-03T05:14:11;11.85;;;4.47;;
37355;SDS011;48747;50.250;18.848;2023-04-03T05:16:14;9.18;;;4.35;;
37355;SDS011;48747;50.250;18.848;2023-04-03T05:18:17;9.25;;;4.55;;
37355;SDS011;48747;50.250;18.848;2023-04-03T05:20:20;10.95;;;5.12;;
37355;SDS011;48747;50.250;18.848;2023-04-03T05:22:23;12.05;;;4.72;;
37355;SDS011;48747;50.250;18.848;2023-04-03T05:24:26;10.78;;;5.10;;
37355;SDS011;48747;50.250;18.848;2023-04-03T05:26:30;16.12;;;5.20;;
37355;SDS011;48747;50.250;18.848;2023-04-03T05:28:33;12.88;;;5.17;;
37355;SDS011;48747;50.250;18.848;2023-04-03T05:30:37;16.32;;;5.62;;
37355;SDS011;48747;50.250;18.848;2023-04-03T05:32:40;13.60;;;4.95;;
37355;SDS011;48747;50.250;18.848;2023-04-03T05:34:43;12.25;;;5.05;;
37355;SDS011;48747;50.250;18.848;2023-04-03T05:36:46;14.60;;;5.17;;
37355;SDS011;48747;50.250;18.848;2023-04-03T05:38:49;15.30;;;4.65;;
37355;SDS011;48747;50.250;18.848;2023-04-03T05:40:52;13.65;;;5.45;;
37355;SDS011;48747;50.250;18.848;2023-04-03T05:42:55;16.12;;;6.47;;
37355;SDS011;48747;50.250;18.848;2023-04-03T05:44:59;17.35;;;6.35;;
37355;SDS011;48747;50.250;18.848;2023-04-03T05:47:02;11.73;;;5.40;;
37355;SDS011;48747;50.250;18.848;2023-04-03T05:49:05;14.53;;;5.70;;
37355;SDS011;48747;50.250;18.848;2023-04-03T05:51:13;14.75;;;6.35;;
37355;SDS011;48747;50.250;18.848;2023-04-03T05:53:25;11.85;;;4.58;;
37355;SDS011;48747;50.250;18.848;2023-04-03T05:55:29;11.38;;;4.20;;
37355;SDS011;48747;50.250;18.848;2023-04-03T05:57:32;14.23;;;5.28;;
37355;SDS011;48747;50.250;18.848;2023-04-03T05:59:35;16.55;;;5.25;;
37355;SDS011;48747;50.250;18.848;2023-04-03T06:01:38;13.25;;;5.22;;
37355;SDS011;48747;50.250;18.848;2023-04-03T06:03:41;10.60;;;5.50;;
37355;SDS011;48747;50.250;18.848;2023-04-03T06:05:44;14.90;;;6.08;;
37355;SDS011;48747;50.250;18.848;2023-04-03T06:07:48;10.25;;;5.17;;
37355;SDS011;48747;50.250;18.848;2023-04-03T06:09:51;18.48;;;5.58;;
37355;SDS011;48747;50.250;18.848;2023-04-03T06:11:54;11.53;;;5.22;;
37355;SDS011;48747;50.250;18.848;2023-04-03T06:13:59;12.68;;;6.15;;
37355;SDS011;48747;50.250;18.848;2023-04-03T06:16:02;15.15;;;6.40;;
37355;SDS011;48747;50.250;18.848;2023-04-03T06:18:06;16.80;;;7.67;;
37355;SDS011;48747;50.250;18.848;2023-04-03T06:20:10;19.40;;;8.50;;
37355;SDS011;48747;50.250;18.848;2023-04-03T06:22:13;17.77;;;8.55;;
37355;SDS011;48747;50.250;18.848;2023-04-03T06:24:17;30.15;;;10.23;;
37355;SDS011;48747;50.250;18.848;2023-04-03T06:26:22;22.37;;;7.97;;
37355;SDS011;48747;50.250;18.848;2023-04-03T06:28:25;20.32;;;7.72;;
37355;SDS011;48747;50.250;18.848;2023-04-03T06:30:28;21.12;;;7.47;;
37355;SDS011;48747;50.250;18.848;2023-04-03T06:32:32;18.85;;;7.70;;
37355;SDS011;48747;50.250;18.848;2023-04-03T06:34:35;18.82;;;6.97;;
37355;SDS011;48747;50.250;18.848;2023-04-03T06:36:38;16.73;;;6.22;;
37355;SDS011;48747;50.250;18.848;2023-04-03T06:38:42;17.85;;;6.67;;
37355;SDS011;48747;50.250;18.848;2023-04-03T06:40:45;18.40;;;6.95;;
37355;SDS011;48747;50.250;18.848;2023-04-03T06:42:49;15.25;;;5.83;;
37355;SDS011;48747;50.250;18.848;2023-04-03T06:44:52;19.80;;;6.08;;
37355;SDS011;48747;50.250;18.848;2023-04-03T06:46:55;13.43;;;6.08;;
37355;SDS011;48747;50.250;18.848;2023-04-03T06:48:58;14.33;;;5.45;;
37355;SDS011;48747;50.250;18.848;2023-04-03T06:51:01;17.60;;;5.83;;
37355;SDS011;48747;50.250;18.848;2023-04-03T06:53:04;12.70;;;6.05;;
37355;SDS011;48747;50.250;18.848;2023-04-03T06:55:08;15.28;;;5.97;;
37355;SDS011;48747;50.250;18.848;2023-04-03T06:57:11;18.02;;;7.45;;
37355;SDS011;48747;50.250;18.848;2023-04-03T06:59:14;16.77;;;6.37;;
37355;SDS011;48747;50.250;18.848;2023-04-03T07:01:18;15.68;;;5.83;;
37355;SDS011;48747;50.250;18.848;2023-04-03T07:03:21;13.58;;;6.60;;
37355;SDS011;48747;50.250;18.848;2023-04-03T07:05:25;15.30;;;6.15;;
37355;SDS011;48747;50.250;18.848;2023-04-03T07:07:28;14.50;;;5.95;;
37355;SDS011;48747;50.250;18.848;2023-04-03T07:09:32;12.03;;;6.17;;
37355;SDS011;48747;50.250;18.848;2023-04-03T07:11:35;12.45;;;5.08;;
37355;SDS011;48747;50.250;18.848;2023-04-03T07:13:38;12.82;;;5.53;;
37355;SDS011;48747;50.250;18.848;2023-04-03T07:15:41;11.55;;;5.50;;
37355;SDS011;48747;50.250;18.848;2023-04-03T07:17:45;13.35;;;5.10;;
37355;SDS011;48747;50.250;18.848;2023-04-03T07:19:48;11.38;;;5.45;;
37355;SDS011;48747;50.250;18.848;2023-04-03T07:21:51;13.88;;;5.75;;
37355;SDS011;48747;50.250;18.848;2023-04-03T07:23:54;14.03;;;6.20;;
37355;SDS011;48747;50.250;18.848;2023-04-03T07:25:57;13.98;;;6.03;;
37355;SDS011;48747;50.250;18.848;2023-04-03T07:28:00;15.13;;;6.30;;
37355;SDS011;48747;50.250;18.848;2023-04-03T07:30:04;18.45;;;6.10;;
37355;SDS011;48747;50.250;18.848;2023-04-03T07:32:07;11.30;;;5.10;;
37355;SDS011;48747;50.250;18.848;2023-04-03T07:34:11;13.98;;;5.50;;
37355;SDS011;48747;50.250;18.848;2023-04-03T07:36:15;14.45;;;5.25;;
37355;SDS011;48747;50.250;18.848;2023-04-03T07:38:20;9.23;;;4.05;;
37355;SDS011;48747;50.250;18.848;2023-04-03T07:40:23;9.25;;;3.98;;
37355;SDS011;48747;50.250;18.848;2023-04-03T07:42:26;7.67;;;3.92;;
37355;SDS011;48747;50.250;18.848;2023-04-03T07:44:29;12.40;;;4.97;;
37355;SDS011;48747;50.250;18.848;2023-04-03T07:46:33;9.28;;;4.45;;
37355;SDS011;48747;50.250;18.848;2023-04-03T07:48:36;9.20;;;4.05;;
37355;SDS011;48747;50.250;18.848;2023-04-03T07:50:40;10.58;;;4.85;;
37355;SDS011;48747;50.250;18.848;2023-04-03T07:52:43;13.50;;;5.10;;
37355;SDS011;48747;50.250;18.848;2023-04-03T07:54:46;11.20;;;4.45;;
37355;SDS011;48747;50.250;18.848;2023-04-03T07:56:49;10.53;;;4.17;;
37355;SDS011;48747;50.250;18.848;2023-04-03T07:58:52;12.90;;;5.05;;
37355;SDS011;48747;50.250;18.848;2023-04-03T08:00:56;12.73;;;5.08;;
37355;SDS011;48747;50.250;18.848;2023-04-03T08:02:59;10.10;;;4.50;;
37355;SDS011;48747;50.250;18.848;2023-04-03T08:05:02;11.05;;;4.33;;
37355;SDS011;48747;50.250;18.848;2023-04-03T08:07:06;9.20;;;3.72;;
37355;SDS011;48747;50.250;18.848;2023-04-03T08:09:09;9.60;;;4.15;;
37355;SDS011;48747;50.250;18.848;2023-04-03T08:11:12;7.05;;;3.65;;
37355;SDS011;48747;50.250;18.848;2023-04-03T08:13:16;6.90;;;3.27;;
37355;SDS011;48747;50.250;18.848;2023-04-03T08:15:19;9.35;;;4.30;;
37355;SDS011;48747;50.250;18.848;2023-04-03T08:17:23;9.10;;;3.75;;
37355;SDS011;48747;50.250;18.848;2023-04-03T08:19:26;8.05;;;4.00;;
37355;SDS011;48747;50.250;18.848;2023-04-03T08:21:29;11.40;;;4.60;;
37355;SDS011;48747;50.250;18.848;2023-04-03T08:23:32;10.05;;;4.12;;
37355;SDS011;48747;50.250;18.848;2023-04-03T08:25:38;9.08;;;4.08;;
37355;SDS011;48747;50.250;18.848;2023-04-03T08:27:44;14.35;;;3.92;;
37355;SDS011;48747;50.250;18.848;2023-04-03T08:29:48;8.18;;;3.60;;
37355;SDS011;48747;50.250;18.848;2023-04-03T08:31:51;8.00;;;3.25;;
37355;SDS011;48747;50.250;18.848;2023-04-03T08:33:56;7.12;;;3.10;;
37355;SDS011;48747;50.250;18.848;2023-04-03T08:35:59;8.23;;;2.98;;
37355;SDS011;48747;50.250;18.848;2023-04-03T08:38:02;6.33;;;2.87;;
37355;SDS011;48747;50.250;18.848;2023-04-03T08:40:06;10.23;;;3.55;;
37355;SDS011;48747;50.250;18.848;2023-04-03T08:42:18;8.08;;;3.15;;
37355;SDS011;48747;50.250;18.848;2023-04-03T08:44:46;10.63;;;3.55;;
37355;SDS011;48747;50.250;18.848;2023-04-03T08:46:55;6.92;;;3.15;;
37355;SDS011;48747;50.250;18.848;2023-04-03T08:49:01;8.55;;;2.58;;
37355;SDS011;48747;50.250;18.848;2023-04-03T08:51:08;8.00;;;2.92;;
37355;SDS011;48747;50.250;18.848;2023-04-03T08:53:15;9.53;;;3.72;;
37355;SDS011;48747;50.250;18.848;2023-04-03T08:57:34;7.30;;;2.58;;
37355;SDS011;48747;50.250;18.848;2023-04-03T08:59:39;7.95;;;2.72;;
37355;SDS011;48747;50.250;18.848;2023-04-03T09:01:43;6.08;;;2.55;;
37355;SDS011;48747;50.250;18.848;2023-04-03T09:03:47;6.97;;;2.95;;
37355;SDS011;48747;50.250;18.848;2023-04-03T09:05:54;5.78;;;2.47;;
37355;SDS011;48747;50.250;18.848;2023-04-03T09:10:33;6.47;;;3.40;;
37355;SDS011;48747;50.250;18.848;2023-04-03T09:12:41;8.13;;;3.30;;
37355;SDS011;48747;50.250;18.848;2023-04-03T09:14:47;7.97;;;2.92;;
37355;SDS011;48747;50.250;18.848;2023-04-03T09:17:15;6.60;;;2.90;;
37355;SDS011;48747;50.250;18.848;2023-04-03T09:21:35;6.45;;;2.90;;
37355;SDS011;48747;50.250;18.848;2023-04-03T09:23:44;8.63;;;2.90;;
37355;SDS011;48747;50.250;18.848;2023-04-03T09:25:49;5.78;;;2.65;;
37355;SDS011;48747;50.250;18.848;2023-04-03T09:27:55;5.97;;;2.60;;
37355;SDS011;48747;50.250;18.848;2023-04-03T09:29:59;7.30;;;2.25;;
37355;SDS011;48747;50.250;18.848;2023-04-03T09:32:02;6.95;;;2.33;;
37355;SDS011;48747;50.250;18.848;2023-04-03T09:36:43;5.85;;;2.42;;
37355;SDS011;48747;50.250;18.848;2023-04-03T09:39:02;6.75;;;2.60;;
37355;SDS011;48747;50.250;18.848;2023-04-03T09:41:11;5.97;;;2.25;;
37355;SDS011;48747;50.250;18.848;2023-04-03T09:45:27;9.33;;;2.83;;
37355;SDS011;48747;50.250;18.848;2023-04-03T09:47:37;5.97;;;2.25;;
37355;SDS011;48747;50.250;18.848;2023-04-03T09:49:41;7.00;;;2.83;;
37355;SDS011;48747;50.250;18.848;2023-04-03T09:51:44;7.33;;;2.40;;
37355;SDS011;48747;50.250;18.848;2023-04-03T09:53:47;8.75;;;2.55;;
37355;SDS011;48747;50.250;18.848;2023-04-03T09:55:50;6.97;;;2.70;;
37355;SDS011;48747;50.250;18.848;2023-04-03T09:57:54;6.33;;;2.62;;
37355;SDS011;48747;50.250;18.848;2023-04-03T10:00:02;8.80;;;2.85;;
37355;SDS011;48747;50.250;18.848;2023-04-03T10:02:41;4.58;;;2.42;;
37355;SDS011;48747;50.250;18.848;2023-04-03T10:04:25;7.85;;;2.50;;
37355;SDS011;48747;50.250;18.848;2023-04-03T10:06:31;7.70;;;2.75;;
37355;SDS011;48747;50.250;18.848;2023-04-03T10:08:36;7.97;;;2.70;;
37355;SDS011;48747;50.250;18.848;2023-04-03T10:10:47;6.67;;;2.83;;
37355;SDS011;48747;50.250;18.848;2023-04-03T10:12:48;6.15;;;2.35;;
37355;SDS011;48747;50.250;18.848;2023-04-03T10:19:34;7.50;;;2.92;;
37355;SDS011;48747;50.250;18.848;2023-04-03T10:21:57;6.42;;;2.30;;
37355;SDS011;48747;50.250;18.848;2023-04-03T10:28:43;6.60;;;2.50;;
37355;SDS011;48747;50.250;18.848;2023-04-03T10:30:57;5.83;;;2.70;;
37355;SDS011;48747;50.250;18.848;2023-04-03T10:33:23;4.87;;;2.62;;
37355;SDS011;48747;50.250;18.848;2023-04-03T10:35:33;7.45;;;2.70;;
37355;SDS011;48747;50.250;18.848;2023-04-03T10:37:55;6.60;;;2.42;;
37355;SDS011;48747;50.250;18.848;2023-04-03T10:47:34;6.67;;;3.27;;
37355;SDS011;48747;50.250;18.848;2023-04-03T10:54:32;6.90;;;2.50;;
37355;SDS011;48747;50.250;18.848;2023-04-03T10:56:37;7.05;;;3.27;;
37355;SDS011;48747;50.250;18.848;2023-04-03T10:58:43;8.70;;;3.12;;
37355;SDS011;48747;50.250;18.848;2023-04-03T11:00:48;8.85;;;4.05;;
37355;SDS011;48747;50.250;18.848;2023-04-03T11:05:06;8.58;;;3.45;;
37355;SDS011;48747;50.250;18.848;2023-04-03T11:07:22;7.83;;;3.85;;
37355;SDS011;48747;50.250;18.848;2023-04-03T11:09:32;7.25;;;2.70;;
37355;SDS011;48747;50.250;18.848;2023-04-03T11:11:39;4.28;;;2.58;;
37355;SDS011;48747;50.250;18.848;2023-04-03T11:15:57;6.60;;;2.80;;
37355;SDS011;48747;50.250;18.848;2023-04-03T11:18:05;4.37;;;2.10;;
37355;SDS011;48747;50.250;18.848;2023-04-03T11:20:21;4.78;;;2.30;;
37355;SDS011;48747;50.250;18.848;2023-04-03T11:22:33;4.62;;;2.00;;
37355;SDS011;48747;50.250;18.848;2023-04-03T11:24:39;6.90;;;2.40;;
37355;SDS011;48747;50.250;18.848;2023-04-03T11:26:45;5.03;;;2.20;;
37355;SDS011;48747;50.250;18.848;2023-04-03T11:28:52;4.15;;;2.17;;
37355;SDS011;48747;50.250;18.848;2023-04-03T11:35:42;6.67;;;2.45;;
37355;SDS011;48747;50.250;18.848;2023-04-03T11:37:52;4.47;;;2.30;;
37355;SDS011;48747;50.250;18.848;2023-04-03T11:39:55;8.58;;;2.80;;
37355;SDS011;48747;50.250;18.848;2023-04-03T11:42:15;8.10;;;3.55;;
37355;SDS011;48747;50.250;18.848;2023-04-03T11:46:55;4.90;;;2.58;;
37355;SDS011;48747;50.250;18.848;2023-04-03T11:48:59;5.85;;;2.42;;
37355;SDS011;48747;50.250;18.848;2023-04-03T11:53:31;9.58;;;2.90;;
37355;SDS011;48747;50.250;18.848;2023-04-03T11:55:46;11.20;;;4.67;;
37355;SDS011;48747;50.250;18.848;2023-04-03T12:00:45;6.17;;;3.00;;
37355;SDS011;48747;50.250;18.848;2023-04-03T12:02:35;10.68;;;4.72;;
37355;SDS011;48747;50.250;18.848;2023-04-03T12:04:40;6.95;;;2.83;;
37355;SDS011;48747;50.250;18.848;2023-04-03T12:08:52;7.58;;;2.50;;
37355;SDS011;48747;50.250;18.848;2023-04-03T12:13:18;6.87;;;3.00;;
37355;SDS011;48747;50.250;18.848;2023-04-03T12:15:23;6.85;;;3.08;;
37355;SDS011;48747;50.250;18.848;2023-04-03T12:17:30;5.25;;;3.27;;
37355;SDS011;48747;50.250;18.848;2023-04-03T12:19:39;5.05;;;2.30;;
37355;SDS011;48747;50.250;18.848;2023-04-03T12:24:04;6.12;;;3.12;;
37355;SDS011;48747;50.250;18.848;2023-04-03T12:28:23;6.72;;;3.17;;
37355;SDS011;48747;50.250;18.848;2023-04-03T12:30:29;4.90;;;2.65;;
37355;SDS011;48747;50.250;18.848;2023-04-03T12:32:44;5.80;;;2.90;;
37355;SDS011;48747;50.250;18.848;2023-04-03T12:39:52;4.37;;;2.65;;
37355;SDS011;48747;50.250;18.848;2023-04-03T12:46:15;6.33;;;2.80;;
37355;SDS011;48747;50.250;18.848;2023-04-03T12:48:24;4.97;;;2.42;;
37355;SDS011;48747;50.250;18.848;2023-04-03T12:50:30;5.78;;;2.45;;
37355;SDS011;48747;50.250;18.848;2023-04-03T12:52:41;3.42;;;1.82;;
37355;SDS011;48747;50.250;18.848;2023-04-03T12:54:46;5.83;;;2.50;;
37355;SDS011;48747;50.250;18.848;2023-04-03T12:56:50;4.42;;;2.20;;
37355;SDS011;48747;50.250;18.848;2023-04-03T12:58:55;5.55;;;2.67;;
37355;SDS011;48747;50.250;18.848;2023-04-03T13:03:06;6.87;;;3.27;;
37355;SDS011;48747;50.250;18.848;2023-04-03T13:05:16;9.38;;;3.37;;
37355;SDS011;48747;50.250;18.848;2023-04-03T13:07:22;7.10;;;3.25;;
37355;SDS011;48747;50.250;18.848;2023-04-03T13:09:32;5.90;;;2.58;;
37355;SDS011;48747;50.250;18.848;2023-04-03T13:11:36;7.20;;;3.58;;
37355;SDS011;48747;50.250;18.848;2023-04-03T13:13:53;9.50;;;3.47;;
37355;SDS011;48747;50.250;18.848;2023-04-03T13:15:56;6.55;;;3.30;;
37355;SDS011;48747;50.250;18.848;2023-04-03T13:18:01;6.72;;;3.22;;
37355;SDS011;48747;50.250;18.848;2023-04-03T13:22:27;5.60;;;3.22;;
37355;SDS011;48747;50.250;18.848;2023-04-03T13:24:35;10.20;;;3.27;;
37355;SDS011;48747;50.250;18.848;2023-04-03T13:26:39;6.83;;;3.12;;
37355;SDS011;48747;50.250;18.848;2023-04-03T13:28:42;6.05;;;3.00;;
37355;SDS011;48747;50.250;18.848;2023-04-03T13:30:54;6.97;;;3.25;;